Time;durP1;ratioP1;P1;durP2;ratioP2;P2;SDS_P1;SDS_P2;PMS_P1;PMS_P2;Temp;Humidity;BMP_temperature;BMP_pressure;BME280_temperature;BME280_humidity;BME280_pressure;Samples;Min_cycle;Max_cycle;Signal;HPM_P1;HPM_P2
2021/10/28 00:12:26;;;;;;;16.58;12.88;;;;;;;;;;4993216;28;20050;-81
2021/10/28 00:14:55;;;;;;;20.77;13.18;;;;;;;;;;4996031;28;20034;-80
2021/10/28 00:17:38;;;;;;;20.55;13.10;;;;;;;;;;4996718;28;20030;-81
2021/10/28 00:20:04;;;;;;;23.15;14.35;;;;;;;;;;4995259;28;20034;-81
2021/10/28 00:22:30;;;;;;;19.23;12.85;;;;;;;;;;4997279;28;20388;-81
2021/10/28 00:24:56;;;;;;;18.45;12.32;;;;;;;;;;4996887;28;20033;-81
2021/10/28 00:27:23;;;;;;;18.65;13.30;;;;;;;;;;4996238;28;20050;-81
2021/10/28 00:29:49;;;;;;;19.40;13.10;;;;;;;;;;4995746;28;20030;-80
2021/10/28 00:32:15;;;;;;;20.20;13.32;;;;;;;;;;4997783;28;20030;-79
2021/10/28 00:34:41;;;;;;;20.33;13.65;;;;;;;;;;4992207;28;20034;-80
2021/10/28 00:37:08;;;;;;;20.98;12.50;;;;;;;;;;4995303;28;20027;-81
2021/10/28 00:39:34;;;;;;;18.92;12.25;;;;;;;;;;4995389;28;20034;-80
2021/10/28 00:42:00;;;;;;;17.33;12.50;;;;;;;;;;4994776;28;20042;-80
2021/10/28 00:44:26;;;;;;;20.88;13.43;;;;;;;;;;4995286;28;20114;-77
2021/10/28 00:46:52;;;;;;;20.27;12.90;;;;;;;;;;4997798;28;20042;-79
2021/10/28 00:49:18;;;;;;;21.00;12.38;;;;;;;;;;4996816;28;20041;-80
2021/10/28 00:51:44;;;;;;;20.10;12.73;;;;;;;;;;4995618;28;20038;-81
2021/10/28 00:54:14;;;;;;;19.15;11.93;;;;;;;;;;4996918;28;20026;-79
2021/10/28 00:56:43;;;;;;;17.85;11.95;;;;;;;;;;4998656;28;20502;-80
2021/10/28 00:59:09;;;;;;;18.58;11.88;;;;;;;;;;5001673;28;20037;-80
2021/10/28 01:01:35;;;;;;;18.75;12.20;;;;;;;;;;5001669;28;20034;-80
2021/10/28 01:04:01;;;;;;;19.02;13.18;;;;;;;;;;5001790;28;20065;-80
2021/10/28 01:06:28;;;;;;;19.33;11.75;;;;;;;;;;5004410;28;20543;-80
2021/10/28 01:08:54;;;;;;;18.38;12.77;;;;;;;;;;5005075;28;20045;-79
2021/10/28 01:11:20;;;;;;;19.38;13.57;;;;;;;;;;5005951;28;20030;-78
2021/10/28 01:13:46;;;;;;;23.15;13.23;;;;;;;;;;5002548;28;20068;-81
2021/10/28 01:16:13;;;;;;;18.70;11.85;;;;;;;;;;4998650;28;20090;-80
2021/10/28 01:18:39;;;;;;;18.45;13.38;;;;;;;;;;4998690;28;20046;-80
2021/10/28 01:21:07;;;;;;;22.58;13.50;;;;;;;;;;4998355;28;20038;-81
2021/10/28 01:23:33;;;;;;;19.77;13.23;;;;;;;;;;4999223;28;20113;-79
2021/10/28 01:26:00;;;;;;;22.77;13.25;;;;;;;;;;5001983;28;20112;-78
2021/10/28 01:28:28;;;;;;;23.60;14.27;;;;;;;;;;4997109;28;20030;-80
2021/10/28 01:30:55;;;;;;;20.73;13.82;;;;;;;;;;4999866;28;20022;-80
2021/10/28 01:33:22;;;;;;;27.80;16.20;;;;;;;;;;5002521;28;20042;-78
2021/10/28 01:35:48;;;;;;;27.13;16.23;;;;;;;;;;5002147;28;20029;-80
2021/10/28 01:38:15;;;;;;;27.27;17.13;;;;;;;;;;4998361;28;20023;-80
2021/10/28 01:40:41;;;;;;;24.60;15.93;;;;;;;;;;4997146;28;20531;-80
2021/10/28 01:43:07;;;;;;;23.30;15.75;;;;;;;;;;4998455;28;20022;-80
2021/10/28 01:45:34;;;;;;;24.63;16.83;;;;;;;;;;4998016;28;20037;-80
2021/10/28 01:48:00;;;;;;;25.25;18.10;;;;;;;;;;4996354;28;20030;-80
2021/10/28 01:50:28;;;;;;;26.80;16.52;;;;;;;;;;4997256;28;20026;-80
2021/10/28 01:52:55;;;;;;;23.65;15.85;;;;;;;;;;4997757;28;20537;-78
2021/10/28 01:55:21;;;;;;;30.83;14.15;;;;;;;;;;4994961;28;20042;-80
2021/10/28 01:57:48;;;;;;;22.90;14.13;;;;;;;;;;4995371;28;20045;-80
2021/10/28 02:00:16;;;;;;;22.88;12.82;;;;;;;;;;4994841;28;20506;-80
2021/10/28 02:02:43;;;;;;;20.73;12.98;;;;;;;;;;4998700;28;20133;-78
2021/10/28 02:05:13;;;;;;;18.73;13.20;;;;;;;;;;4984872;28;20023;-79
2021/10/28 02:07:39;;;;;;;17.20;11.98;;;;;;;;;;4987088;28;20034;-79
2021/10/28 02:10:06;;;;;;;17.92;11.82;;;;;;;;;;5004226;28;20034;-77
2021/10/28 02:12:33;;;;;;;20.05;11.65;;;;;;;;;;4999780;28;20050;-80
2021/10/28 02:14:59;;;;;;;21.88;12.93;;;;;;;;;;4994892;28;20021;-81
2021/10/28 02:17:25;;;;;;;21.95;13.20;;;;;;;;;;4996764;28;20034;-79
2021/10/28 02:19:51;;;;;;;23.58;13.18;;;;;;;;;;4997445;28;20402;-80
2021/10/28 02:22:17;;;;;;;24.05;14.20;;;;;;;;;;4997881;28;20136;-80
2021/10/28 02:24:43;;;;;;;22.83;14.15;;;;;;;;;;4998846;28;20058;-80
2021/10/28 02:27:09;;;;;;;21.45;13.65;;;;;;;;;;4998255;28;20427;-80
2021/10/28 02:29:36;;;;;;;22.70;13.90;;;;;;;;;;4997623;28;20027;-80
2021/10/28 02:32:02;;;;;;;22.85;13.85;;;;;;;;;;4998317;28;20046;-81
2021/10/28 02:34:28;;;;;;;20.92;14.25;;;;;;;;;;4997081;28;20030;-81
2021/10/28 02:36:54;;;;;;;23.08;13.80;;;;;;;;;;4998697;28;20574;-81
2021/10/28 02:39:20;;;;;;;20.45;13.27;;;;;;;;;;4998850;28;20050;-81
2021/10/28 02:41:46;;;;;;;22.55;13.52;;;;;;;;;;4998976;28;20038;-80
2021/10/28 02:44:13;;;;;;;20.65;13.00;;;;;;;;;;5000418;28;20527;-81
2021/10/28 02:46:40;;;;;;;23.58;14.93;;;;;;;;;;5000732;28;20026;-81
2021/10/28 02:49:11;;;;;;;30.35;18.30;;;;;;;;;;5000202;28;20082;-80
2021/10/28 02:51:38;;;;;;;31.00;18.70;;;;;;;;;;5000779;28;20019;-80
2021/10/28 02:54:04;;;;;;;32.45;20.10;;;;;;;;;;4997733;28;20030;-81
2021/10/28 02:56:30;;;;;;;34.67;18.75;;;;;;;;;;4996579;28;20034;-80
2021/10/28 02:58:56;;;;;;;28.92;18.00;;;;;;;;;;4997774;28;20041;-81
2021/10/28 03:01:22;;;;;;;31.65;19.45;;;;;;;;;;4996490;28;20022;-80
2021/10/28 03:03:48;;;;;;;32.42;17.23;;;;;;;;;;4997451;28;20026;-80
2021/10/28 03:06:14;;;;;;;28.83;16.50;;;;;;;;;;4997934;28;20487;-80
2021/10/28 03:08:41;;;;;;;22.40;13.60;;;;;;;;;;4997105;28;20030;-81
2021/10/28 03:11:08;;;;;;;20.77;13.68;;;;;;;;;;4999907;28;20030;-81
2021/10/28 03:13:35;;;;;;;24.90;15.35;;;;;;;;;;5001366;28;20108;-80
2021/10/28 03:16:14;;;;;;;26.13;16.48;;;;;;;;;;4996925;28;20065;-81
2021/10/28 03:26:38;;;;;;;40.35;20.60;;;;;;;;;;4997373;28;20680;-81
2021/10/28 03:29:04;;;;;;;39.63;19.25;;;;;;;;;;4994214;28;20030;-81
2021/10/28 03:31:30;;;;;;;37.42;20.42;;;;;;;;;;4996191;28;20032;-80
2021/10/28 03:33:56;;;;;;;30.27;19.10;;;;;;;;;;5012137;28;20090;-81
2021/10/28 03:36:49;;;;;;;27.42;16.98;;;;;;;;;;5041137;22;20469;-78
2021/10/28 03:39:43;;;;;;;;;;;;;;;;;;5044935;28;20017;-77
2021/10/28 03:42:50;;;;;;;31.95;18.33;;;;;;;;;;5047583;28;19944;-76
2021/10/28 04:17:28;;;;;;;33.20;18.02;;;;;;;;;;5033018;28;20605;-77
2021/10/28 04:30:21;;;;;;;32.40;18.60;;;;;;;;;;5031106;28;20108;-77
2021/10/28 04:32:48;;;;;;;36.25;18.92;;;;;;;;;;5032639;28;20662;-77
2021/10/28 04:35:14;;;;;;;38.13;19.42;;;;;;;;;;5033038;28;20057;-77
2021/10/28 04:37:40;;;;;;;33.67;19.35;;;;;;;;;;5031188;28;20486;-77
2021/10/28 04:40:07;;;;;;;38.05;20.70;;;;;;;;;;5031812;28;20414;-77
2021/10/28 04:42:33;;;;;;;35.80;20.00;;;;;;;;;;5032742;28;20079;-77
2021/10/28 04:44:59;;;;;;;37.50;20.70;;;;;;;;;;5031229;28;20033;-77
2021/10/28 04:47:25;;;;;;;38.72;19.40;;;;;;;;;;5030889;28;20026;-77
2021/10/28 04:49:51;;;;;;;34.25;19.35;;;;;;;;;;5031968;28;20025;-77
2021/10/28 04:52:20;;;;;;;38.08;21.35;;;;;;;;;;5032573;28;20030;-76
2021/10/28 04:54:46;;;;;;;38.97;22.30;;;;;;;;;;5032618;28;20048;-77
2021/10/28 04:57:12;;;;;;;46.92;24.65;;;;;;;;;;5031348;28;20486;-77
2021/10/28 04:59:38;;;;;;;51.40;26.48;;;;;;;;;;5030640;28;20036;-76
2021/10/28 05:02:04;;;;;;;50.78;26.00;;;;;;;;;;5032304;28;20430;-77
2021/10/28 05:04:30;;;;;;;48.45;24.85;;;;;;;;;;5031128;28;20037;-77
2021/10/28 05:06:56;;;;;;;53.95;26.05;;;;;;;;;;5032236;28;20474;-77
2021/10/28 05:09:29;;;;;;;51.05;25.25;;;;;;;;;;5019660;28;20029;-77
2021/10/28 05:11:56;;;;;;;44.58;23.52;;;;;;;;;;5010940;28;20025;-77
2021/10/28 05:14:23;;;;;;;41.30;22.40;;;;;;;;;;5044118;28;20567;-77
2021/10/28 05:16:56;;;;;;;41.83;21.17;;;;;;;;;;5031787;28;20035;-77
2021/10/28 05:19:22;;;;;;;43.15;21.60;;;;;;;;;;5032706;28;20029;-78
2021/10/28 05:21:48;;;;;;;35.40;19.95;;;;;;;;;;5032718;28;20528;-77
2021/10/28 05:24:14;;;;;;;39.85;20.98;;;;;;;;;;5032873;28;20539;-77
2021/10/28 05:26:40;;;;;;;40.33;20.58;;;;;;;;;;5033189;28;20041;-78
2021/10/28 05:29:06;;;;;;;39.72;21.27;;;;;;;;;;5032342;28;20029;-77
2021/10/28 05:31:32;;;;;;;47.88;21.83;;;;;;;;;;5032519;28;20060;-78
2021/10/28 05:33:58;;;;;;;42.90;21.42;;;;;;;;;;5031887;28;20041;-79
2021/10/28 05:36:24;;;;;;;41.30;21.20;;;;;;;;;;5033066;28;20041;-79
2021/10/28 05:38:50;;;;;;;42.60;22.55;;;5.70;99.90;;;;;;5025077;28;20041;-79
2021/10/28 05:41:15;;;;;;;44.70;22.90;;;5.40;99.90;;;;;;5018354;28;20128;-78
2021/10/28 05:43:41;;;;;;;50.58;27.45;;;7.10;99.90;;;;;;5032856;28;20099;-79
2021/10/28 05:46:06;;;;;;;42.30;22.88;;;5.50;99.90;;;;;;5032794;28;20183;-79
2021/10/28 05:48:32;;;;;;;45.50;23.38;;;5.50;99.90;;;;;;5032850;28;20034;-79
2021/10/28 05:51:00;;;;;;;40.33;21.38;;;5.70;99.90;;;;;;5029006;28;20455;-78
2021/10/28 05:53:25;;;;;;;42.22;21.35;;;5.60;99.90;;;;;;5026243;28;20018;-78
2021/10/28 05:55:51;;;;;;;42.80;21.70;;;5.70;99.90;;;;;;5030295;28;20410;-78
2021/10/28 05:58:17;;;;;;;38.22;20.63;;;6.40;99.90;;;;;;5014571;28;20625;-79
2021/10/28 06:00:42;;;;;;;39.17;21.60;;;5.60;99.90;;;;;;5016743;28;20045;-79
2021/10/28 06:03:08;;;;;;;43.30;20.42;;;5.80;99.90;;;;;;5030380;28;20037;-79
2021/10/28 06:05:34;;;;;;;42.15;25.83;;;5.60;99.90;;;;;;5025716;28;20033;-78
2021/10/28 06:07:59;;;;;;;47.13;25.35;;;5.70;99.90;;;;;;5031547;28;20035;-78
2021/10/28 06:10:25;;;;;;;36.33;23.45;;;5.80;99.90;;;;;;5043494;28;20037;-79
2021/10/28 06:12:53;;;;;;;38.45;21.67;;;5.90;99.90;;;;;;5032067;28;20025;-80
2021/10/28 06:15:21;;;;;;;39.03;22.42;;;5.90;99.90;;;;;;5031929;28;20029;-78
2021/10/28 06:17:53;;;;;;;38.95;21.20;;;6.30;99.90;;;;;;5032129;28;20095;-78
2021/10/28 06:20:19;;;;;;;;;;;6.90;99.90;;;;;;5031846;28;20049;-78
2021/10/28 06:22:46;;;;;;;34.80;20.73;;;6.00;99.90;;;;;;5032061;28;19955;-79
2021/10/28 06:25:12;;;;;;;36.80;21.65;;;6.00;99.90;;;;;;5047178;28;20039;-78
2021/10/28 06:27:38;;;;;;;45.08;21.95;;;6.10;99.90;;;;;;5031895;28;20025;-78
2021/10/28 06:30:05;;;;;;;34.80;19.77;;;7.30;99.90;;;;;;5027818;28;20026;-78
2021/10/28 06:32:31;;;;;;;38.35;21.45;;;6.10;99.90;;;;;;5012365;28;20022;-78
2021/10/28 06:34:57;;;;;;;34.78;20.38;;;6.70;99.90;;;;;;5028203;28;20109;-79
2021/10/28 06:37:23;;;;;;;33.30;20.88;;;6.30;99.90;;;;;;5019247;28;20029;-79
2021/10/28 06:39:49;;;;;;;37.67;21.98;;;6.30;99.90;;;;;;5020658;28;20034;-80
2021/10/28 06:42:14;;;;;;;37.40;21.33;;;6.50;99.90;;;;;;5023822;28;20025;-79
2021/10/28 06:44:41;;;;;;;42.58;22.70;;;6.30;99.90;;;;;;5012034;28;20124;-79
2021/10/28 06:47:07;;;;;;;37.88;21.92;;;6.50;99.90;;;;;;5022143;28;20087;-78
2021/10/28 06:49:37;;;;;;;35.78;20.15;;;7.70;99.90;;;;;;5024930;28;20110;-78
2021/10/28 06:52:06;;;;;;;36.17;21.95;;;6.60;99.90;;;;;;5032348;28;20021;-79
2021/10/28 06:54:35;;;;;;;30.48;19.98;;;6.60;99.90;;;;;;5031784;28;20532;-78
2021/10/28 06:58:00;;;;;;;36.50;19.80;;;6.60;99.90;;;;;;5031377;28;20405;-79
2021/10/28 07:02:50;;;;;;;33.10;18.75;;;8.40;99.90;;;;;;5010735;28;20398;-78
2021/10/28 07:05:16;;;;;;;34.38;19.52;;;6.80;99.90;;;;;;4997197;28;20034;-77
2021/10/28 07:07:42;;;;;;;39.80;20.83;;;6.90;99.90;;;;;;5022773;28;20073;-76
2021/10/28 07:10:16;;;;;;;30.90;20.23;;;6.80;99.90;;;;;;5016942;28;20037;-78
2021/10/28 07:12:54;;;;;;;33.50;18.52;;;7.10;99.90;;;;;;5016281;28;20530;-78
2021/10/28 07:21:03;;;;;;;37.28;19.77;;;7.40;99.90;;;;;;5015002;28;20107;-78
2021/10/28 07:34:27;;;;;;;39.08;21.92;;;7.40;99.90;;;;;;5003893;28;20038;-79
2021/10/28 08:21:57;;;;;;;41.55;21.60;;;8.70;99.90;;;;;;5014200;28;20029;-77
2021/10/28 08:29:38;;;;;;;38.50;19.10;;;9.00;99.90;;;;;;5014210;28;20521;-77
2021/10/28 08:32:06;;;;;;;34.50;17.70;;;10.10;99.90;;;;;;5014888;28;20033;-79
2021/10/28 08:34:35;;;;;;;30.85;15.07;;;9.10;99.90;;;;;;5016450;28;20030;-78
2021/10/28 08:37:10;;;;;;;25.38;14.90;;;9.00;99.90;;;;;;5014532;28;20095;-78
2021/10/28 08:39:42;;;;;;;30.80;13.35;;;9.10;99.90;;;;;;5026243;28;20440;-78
2021/10/28 08:42:10;;;;;;;22.48;12.18;;;9.30;99.90;;;;;;5032406;28;20432;-79
2021/10/28 08:44:39;;;;;;;23.20;11.18;;;9.40;99.90;;;;;;5033813;28;20021;-79
2021/10/28 08:47:07;;;;;;;21.27;11.75;;;9.40;99.90;;;;;;5029676;28;20030;-78
2021/10/28 08:49:36;;;;;;;21.88;11.90;;;9.50;99.90;;;;;;5026156;28;20056;-77
2021/10/28 08:54:58;;;;;;;28.40;15.10;;;9.70;99.90;;;;;;5034899;28;20036;-77
2021/10/28 09:19:34;;;;;;;28.42;14.20;;;;;;;;;;5034384;28;20149;-78
2021/10/28 09:23:54;;;;;;;28.48;14.68;;;;;;;;;;5033121;28;20095;-78
2021/10/28 09:25:46;;;;;;;24.77;13.52;;;;;;;;;;4996527;28;20030;-78
2021/10/28 09:28:28;;;;;;;23.23;13.25;;;;;;;;;;5033691;28;20034;-78
2021/10/28 09:31:05;;;;;;;23.55;13.35;;;;;;;;;;5032889;28;20025;-79
2021/10/28 09:33:46;;;;;;;21.55;12.38;;;;;;;;;;5033916;28;20029;-78
2021/10/28 09:45:11;;;;;;;20.45;11.90;;;;;;;;;;5033107;28;19911;-79
2021/10/28 09:50:18;;;;;;;20.45;12.05;;;;;;;;;;5032323;28;20482;-78
2021/10/28 09:53:04;;;;;;;18.15;11.43;;;;;;;;;;5032613;28;20013;-78
2021/10/28 09:58:27;;;;;;;19.42;12.48;;;;;;;;;;5032315;28;20065;-79
2021/10/28 10:00:54;;;;;;;19.55;11.75;;;;;;;;;;5032119;28;20037;-79
2021/10/28 10:03:32;;;;;;;19.90;11.80;;;;;;;;;;5032695;28;20060;-78
2021/10/28 10:06:03;;;;;;;20.55;11.48;;;;;;;;;;5031267;28;20136;-78
2021/10/28 10:08:30;;;;;;;20.23;12.48;;;;;;;;;;5025955;28;20030;-79
2021/10/28 10:10:56;;;;;;;19.45;11.98;;;;;;;;;;5012092;28;20022;-79
2021/10/28 10:13:23;;;;;;;16.63;10.70;;;;;;;;;;5013109;28;20071;-78
2021/10/28 10:15:52;;;;;;;20.73;10.98;;;;;;;;;;5027997;28;20423;-79
2021/10/28 10:18:20;;;;;;;18.35;10.98;;;;;;;;;;5012530;28;20157;-79
2021/10/28 10:20:50;;;;;;;16.20;10.07;;;;;;;;;;5012203;28;20177;-78
2021/10/28 10:23:35;;;;;;;21.13;10.88;;;;;;;;;;5028171;28;20041;-79
2021/10/28 10:26:49;;;;;;;17.05;10.43;;;;;;;;;;5012219;28;20637;-79
2021/10/28 11:21:52;;;;;;;;;;;;;;;;;;5031450;28;20040;-79
2021/10/28 11:32:49;;;;;;;17.15;10.02;;;;;;;;;;5038773;28;20040;-79
2021/10/28 12:47:01;;;;;;;12.32;9.07;;;;;;;;;;5034775;28;20076;-81
2021/10/28 12:49:54;;;;;;;16.08;9.30;;;;;;;;;;5035743;28;20017;-83
2021/10/28 12:55:33;;;;;;;12.38;8.50;;;;;;;;;;5035352;28;20043;-82
2021/10/28 14:15:21;;;;;;;11.98;9.25;;;;;;;;;;5053377;28;20039;-80
2021/10/28 14:23:25;;;;;;;11.00;8.82;;;;;;;;;;5039841;28;20037;-79
2021/10/28 14:37:20;;;;;;;11.57;8.70;;;;;;;;;;5033097;28;19913;-79
2021/10/28 15:28:44;;;;;;;13.02;8.85;;;;;;;;;;5037958;28;20075;-79
2021/10/28 15:38:47;;;;;;;12.93;8.68;;;;;;;;;;5043344;28;20029;-79
2021/10/28 15:41:43;;;;;;;13.75;9.23;;;;;;;;;;5049790;28;20428;-79
2021/10/28 15:57:49;;;;;;;16.90;11.23;;;;;;;;;;5021260;22;20145;-75
2021/10/28 16:21:57;;;;;;;20.13;13.30;;;;;;;;;;4995544;28;20081;-79
2021/10/28 16:24:28;;;;;;;19.80;14.55;;;;;;;;;;5019273;28;20113;-80
2021/10/28 16:26:54;;;;;;;20.83;14.90;;;;;;;;;;4996991;28;20475;-78
2021/10/28 16:29:21;;;;;;;24.27;15.07;;;;;;;;;;4989943;28;20026;-77
2021/10/28 16:31:47;;;;;;;22.40;16.17;;;;;;;;;;4993293;28;20026;-78
2021/10/28 16:34:14;;;;;;;23.73;16.00;;;;;;;;;;4993821;28;20456;-78
2021/10/28 16:36:40;;;;;;;22.85;15.13;;;;;;;;;;5008481;28;20031;-78
2021/10/28 16:39:11;;;;;;;24.35;16.38;;;;;;;;;;4993806;28;20479;-78
2021/10/28 16:41:39;;;;;;;24.98;15.80;;;;;;;;;;4993588;28;20031;-77
2021/10/28 16:44:05;;;;;;;19.80;14.15;;;;;;;;;;4994006;28;20069;-77
2021/10/28 16:46:31;;;;;;;21.70;14.50;;;;;;;;;;4993786;28;20026;-77
2021/10/28 16:48:57;;;;;;;20.02;13.40;;;;;;;;;;5008853;28;20030;-78
2021/10/28 16:51:25;;;;;;;21.75;13.70;;;;;;;;;;4993130;28;20398;-76
2021/10/28 16:53:53;;;;;;;20.15;14.25;;;;;;;;;;4993662;28;20074;-75
2021/10/28 16:56:19;;;;;;;22.67;15.02;;;;;;;;;;4992917;28;20179;-76
2021/10/28 16:58:45;;;;;;;19.02;13.88;;;;;;;;;;4993296;28;20035;-75
2021/10/28 17:01:12;;;;;;;23.42;14.10;;;;;;;;;;4992780;28;20056;-77
2021/10/28 17:03:38;;;;;;;20.20;13.88;;;;;;;;;;4993490;28;20109;-77
2021/10/28 17:06:05;;;;;;;20.17;14.35;;;;;;;;;;4993312;28;20034;-77
2021/10/28 17:08:31;;;;;;;21.83;14.88;;;;;;;;;;4992048;28;20456;-77
2021/10/28 17:10:57;;;;;;;21.25;14.35;;;;;;;;;;5008738;28;20394;-77
2021/10/28 17:13:24;;;;;;;25.25;16.17;;;;;;;;;;4993950;28;20105;-77
2021/10/28 17:15:50;;;;;;;24.27;15.40;;;;;;;;;;5010090;28;20019;-77
2021/10/28 17:18:16;;;;;;;22.45;15.57;;;;;;;;;;4994191;28;20050;-80
2021/10/28 17:20:42;;;;;;;25.88;15.73;;;;;;;;;;4994997;28;20030;-78
2021/10/28 17:23:19;;;;;;;24.27;15.68;;;;;;;;;;4991603;28;20030;-78
2021/10/28 17:25:56;;;;;;;22.48;15.68;;;;;;;;;;4972056;28;20034;-77
2021/10/28 17:28:23;;;;;;;24.73;16.73;;;;;;;;;;4994764;28;20038;-78
2021/10/28 17:30:49;;;;;;;24.50;16.80;;;;;;;;;;4992711;28;20376;-78
2021/10/28 17:33:15;;;;;;;26.75;16.00;;;;;;;;;;4995467;28;20411;-78
2021/10/28 17:35:41;;;;;;;23.73;15.20;;;;;;;;;;4992283;28;20529;-77
2021/10/28 17:38:07;;;;;;;22.85;14.70;;;;;;;;;;4992180;28;20514;-77
2021/10/28 17:40:33;;;;;;;22.35;16.33;;;;;;;;;;4993476;28;20037;-78
2021/10/28 17:43:00;;;;;;;29.45;20.75;;;;;;;;;;5008729;28;20031;-78
2021/10/28 17:45:29;;;;;;;23.50;15.70;;;;;;;;;;4993865;28;20049;-77
2021/10/28 17:47:55;;;;;;;25.30;15.18;;;;;;;;;;5007838;28;20461;-77
2021/10/28 17:50:22;;;;;;;29.50;19.48;;;;;;;;;;4975378;28;20395;-78
2021/10/28 17:52:48;;;;;;;29.75;18.73;;;;;;;;;;4998010;28;20069;-77
2021/10/28 17:55:14;;;;;;;30.80;18.65;;;;;;;;;;4997891;28;20048;-79
2021/10/28 17:57:41;;;;;;;27.67;17.50;;;;;;;;;;4995442;28;20074;-80
2021/10/28 18:00:08;;;;;;;28.58;19.10;;;;;;;;;;4996942;28;20563;-77
2021/10/28 18:02:34;;;;;;;34.78;20.83;;;;;;;;;;4994989;28;20402;-77
2021/10/28 18:05:01;;;;;;;32.47;21.25;;;;;;;;;;5014976;28;20026;-77
2021/10/28 18:07:27;;;;;;;30.13;19.80;;;;;;;;;;4999609;28;20030;-79
2021/10/28 18:09:53;;;;;;;33.20;20.13;;;;;;;;;;5009385;28;20452;-79
2021/10/28 18:12:19;;;;;;;35.30;21.95;;;;;;;;;;4994594;28;20041;-79
2021/10/28 18:14:45;;;;;;;34.40;22.95;;;;;;;;;;5011482;28;20132;-79
2021/10/28 18:17:11;;;;;;;37.22;22.50;;;;;;;;;;4994603;28;20034;-78
2021/10/28 18:19:39;;;;;;;39.45;21.85;;;;;;;;;;4992490;28;20034;-78
2021/10/28 18:22:05;;;;;;;38.47;20.20;;;;;;;;;;4991809;28;20048;-78
2021/10/28 18:24:31;;;;;;;30.13;18.77;;;;;;;;;;4992962;28;20101;-77
2021/10/28 18:26:58;;;;;;;27.58;18.00;;;;;;;;;;4993230;28;20081;-78
2021/10/28 18:29:24;;;;;;;30.17;18.65;;;;;;;;;;4993126;28;20026;-77
2021/10/28 18:31:50;;;;;;;31.05;18.67;;;;;;;;;;4992423;28;20113;-77
2021/10/28 18:34:17;;;;;;;32.45;18.77;;;;;;;;;;5007784;28;20062;-77
2021/10/28 18:36:44;;;;;;;32.20;18.77;;;;;;;;;;4992314;28;20031;-77
2021/10/28 18:39:13;;;;;;;31.33;19.48;;;;;;;;;;5007311;28;20361;-77
2021/10/28 18:41:40;;;;;;;28.50;19.27;;;;;;;;;;5007843;28;20022;-78
2021/10/28 18:44:06;;;;;;;26.35;17.92;;;;;;;;;;4993411;28;20022;-79
2021/10/28 18:46:34;;;;;;;26.13;17.27;;;;;;;;;;4992360;28;20023;-77
2021/10/28 18:49:02;;;;;;;29.45;17.08;;;;;;;;;;5006677;28;20026;-77
2021/10/28 18:51:29;;;;;;;29.25;17.13;;;;;;;;;;4992832;28;20033;-77
2021/10/28 18:53:55;;;;;;;30.83;17.63;;;;;;;;;;4991657;28;20105;-77
2021/10/28 18:56:22;;;;;;;27.75;18.58;;;;;;;;;;4991384;28;20414;-79
2021/10/28 18:58:48;;;;;;;33.22;18.70;;;;;;;;;;4993496;28;20026;-79
2021/10/28 19:01:15;;;;;;;31.45;19.17;;;;;;;;;;5006492;28;20027;-78
2021/10/28 19:03:42;;;;;;;34.22;20.35;;;;;;;;;;4995677;28;20033;-77
2021/10/28 19:06:09;;;;;;;31.83;20.52;;;;;;;;;;4995875;28;20030;-79
2021/10/28 19:08:36;;;;;;;35.38;21.65;;;;;;;;;;4995737;28;20200;-78
2021/10/28 19:11:04;;;;;;;33.15;22.38;;;;;;;;;;4995284;28;20467;-78
2021/10/28 19:13:30;;;;;;;39.80;23.48;;;;;;;;;;4995740;28;20076;-78
2021/10/28 19:15:56;;;;;;;45.58;28.17;;;;;;;;;;4995738;28;20035;-79
2021/10/28 19:18:23;;;;;;;41.92;25.90;;;;;;;;;;4995615;28;20076;-79
2021/10/28 19:20:49;;;;;;;48.25;29.00;;;;;;;;;;4997113;28;20026;-79
2021/10/28 19:23:15;;;;;;;51.15;29.38;;;;;;;;;;5001127;28;20035;-78
2021/10/28 19:25:41;;;;;;;47.03;28.48;;;;;;;;;;4982152;28;20035;-79
2021/10/28 19:28:08;;;;;;;49.83;27.73;;;;;;;;;;4976892;28;20097;-78
2021/10/28 19:30:49;;;;;;;48.58;29.52;;;;;;;;;;4976355;28;20023;-77
2021/10/28 19:33:19;;;;;;;48.22;27.80;;;;;;;;;;4976275;28;20019;-78
2021/10/28 19:35:50;;;;;;;43.65;26.60;;;;;;;;;;4987657;28;20034;-78
2021/10/28 19:46:18;;;;;;;35.75;23.92;;;;;;;;;;4975594;28;20510;-79
2021/10/28 19:48:46;;;;;;;37.80;23.05;;;;;;;;;;4994785;28;20027;-78
2021/10/28 19:51:12;;;;;;;42.42;23.67;;;;;;;;;;4984007;28;20434;-79
2021/10/28 19:53:38;;;;;;;46.17;26.50;;;;;;;;;;4982044;28;20503;-78
2021/10/28 19:56:09;;;;;;;37.40;24.55;;;;;;;;;;4983571;28;20770;-78
2021/10/28 19:58:37;;;;;;;35.65;22.48;;;;;;;;;;4980346;28;20077;-78
2021/10/28 20:01:24;;;;;;;28.40;19.10;;;;;;;;;;4986729;28;20030;-80
2021/10/28 20:04:09;;;;;;;37.00;22.20;;;;;;;;;;4979987;28;20026;-79
2021/10/28 20:22:34;;;;;;;41.13;24.55;;;;;;;;;;4990750;28;20089;-78
2021/10/28 20:25:00;;;;;;;46.92;26.80;;;;;;;;;;4993843;28;20036;-79
2021/10/28 20:27:26;;;;;;;52.65;28.50;;;;;;;;;;4994540;28;20701;-78
2021/10/28 20:29:52;;;;;;;47.20;28.52;;;;;;;;;;4993919;28;20543;-78
2021/10/28 20:32:18;;;;;;;49.67;27.30;;;;;;;;;;4994393;28;20050;-78
2021/10/28 20:35:05;;;;;;;47.42;27.08;;;;;;;;;;4994211;28;20026;-79
2021/10/28 20:37:32;;;;;;;40.97;25.55;;;;;;;;;;4993174;28;20077;-78
2021/10/28 20:39:58;;;;;;;37.83;24.13;;;;;;;;;;5008918;28;20034;-78
2021/10/28 20:42:35;;;;;;;32.00;20.60;;;;;;;;;;4993830;28;20062;-78
2021/10/28 20:45:01;;;;;;;35.72;21.95;;;;;;;;;;4993888;28;20076;-78
2021/10/28 20:47:28;;;;;;;33.13;20.80;;;;;;;;;;4993904;28;20109;-78
2021/10/28 20:49:54;;;;;;;38.25;23.05;;;;;;;;;;4993178;28;20030;-78
2021/10/28 20:52:20;;;;;;;45.67;25.17;;;;;;;;;;5008835;28;20372;-78
2021/10/28 20:54:46;;;;;;;45.53;25.35;;;;;;;;;;4993644;28;20037;-78
2021/10/28 20:57:12;;;;;;;46.67;27.25;;;;;;;;;;5008585;28;20526;-78
2021/10/28 20:59:38;;;;;;;53.33;27.52;;;;;;;;;;4993266;28;20054;-78
2021/10/28 21:02:04;;;;;;;50.10;27.15;;;;;;;;;;5008686;28;20037;-78
2021/10/28 21:04:30;;;;;;;46.80;26.85;;;;;;;;;;4993386;28;20101;-79
2021/10/28 21:06:56;;;;;;;48.22;27.23;;;;;;;;;;5008576;28;20120;-78
2021/10/28 21:09:23;;;;;;;49.97;27.73;;;;;;;;;;4981332;28;20023;-79
2021/10/28 21:11:49;;;;;;;51.35;27.95;;;;;;;;;;4979621;28;20061;-78
2021/10/28 21:14:16;;;;;;;59.15;31.90;;;;;;;;;;5008787;28;20459;-79
2021/10/28 21:16:42;;;;;;;48.13;28.70;;;;;;;;;;4993518;28;20030;-78
2021/10/28 21:19:09;;;;;;;48.50;28.90;;;;;;;;;;4992877;28;20023;-79
2021/10/28 21:21:36;;;;;;;54.55;29.58;;;;;;;;;;5007907;28;20384;-78
2021/10/28 21:24:02;;;;;;;49.22;28.48;;;;;;;;;;4976177;28;20511;-79
2021/10/28 21:26:28;;;;;;;52.17;29.50;;;;;;;;;;4993387;28;20096;-79
2021/10/28 21:28:54;;;;;;;49.95;28.50;;;;;;;;;;4993390;28;20032;-78
2021/10/28 21:31:20;;;;;;;47.38;28.38;;;;;;;;;;4992878;28;20033;-79
2021/10/28 21:33:46;;;;;;;47.30;26.13;;;;;;;;;;4992248;28;20046;-80
2021/10/28 21:36:12;;;;;;;46.03;27.60;;;;;;;;;;5008356;28;20022;-80
2021/10/28 21:38:38;;;;;;;53.42;28.48;;;;;;;;;;4993487;28;20399;-79
2021/10/28 21:41:04;;;;;;;51.22;28.10;;;;;;;;;;4992771;28;20026;-79
2021/10/28 21:43:32;;;;;;;55.22;28.50;;;;;;;;;;4993236;28;20026;-79
2021/10/28 21:45:58;;;;;;;43.88;25.73;;;;;;;;;;4993506;28;20022;-79
2021/10/28 21:48:24;;;;;;;40.42;23.48;;;;;;;;;;4992837;28;20031;-79
2021/10/28 21:51:02;;;;;;;40.40;24.40;;;;;;;;;;4992487;28;20093;-76
2021/10/28 21:53:31;;;;;;;38.17;23.95;;;;;;;;;;4993611;28;20045;-77
2021/10/28 22:01:37;;;;;;;40.30;22.88;;;;;;;;;;5023065;28;20061;-87
2021/10/28 22:04:22;;;;;;;37.67;22.67;;;;;;;;;;5022168;28;20048;-87
2021/10/28 22:25:54;;;;;;;34.80;19.77;;;;;;;;;;5006835;28;20060;-84
2021/10/28 22:28:20;;;;;;;34.22;20.27;;;;;;;;;;5006733;28;20114;-85
2021/10/28 22:30:46;;;;;;;38.55;21.30;;;;;;;;;;4989374;28;20046;-85
2021/10/28 22:33:13;;;;;;;34.33;20.88;;;;;;;;;;5010743;28;20038;-86
2021/10/28 22:35:48;;;;;;;37.00;20.65;;;;;;;;;;5007928;28;20352;-88
2021/10/28 22:38:14;;;;;;;35.05;20.40;;;;;;;;;;5026703;28;20663;-88
2021/10/28 22:40:48;;;;;;;43.30;21.65;;;;;;;;;;5008995;28;20065;-87
2021/10/28 22:43:15;;;;;;;43.28;22.40;;;;;;;;;;5002116;28;20030;-88
2021/10/28 22:45:42;;;;;;;41.15;21.58;;;;;;;;;;5005594;28;20041;-88
2021/10/28 22:48:09;;;;;;;221.93;33.55;;;;;;;;;;5012590;28;20034;-87
2021/10/28 22:50:37;;;;;;;120.45;31.80;;;;;;;;;;5027008;28;20026;-86
2021/10/28 22:53:04;;;;;;;64.47;29.20;;;;;;;;;;5027959;28;20025;-82
2021/10/28 22:55:47;;;;;;;59.35;27.40;;;;;;;;;;5020923;28;20018;-83
2021/10/28 22:58:22;;;;;;;57.38;27.33;;;;;;;;;;5015416;28;20459;-86
2021/10/28 23:04:25;;;;;;;63.90;30.00;;;;;;;;;;5006986;28;20030;-86
2021/10/28 23:06:43;;;;;;;67.97;30.13;;;;;;;;;;5005125;28;20030;-86
2021/10/28 23:22:09;;;;;;;65.05;29.60;;;;;;;;;;4991043;28;20038;-87
2021/10/28 23:24:35;;;;;;;138.88;33.83;;;;;;;;;;5005017;28;20077;-87
2021/10/28 23:27:01;;;;;;;93.80;30.92;;;;;;;;;;5005596;28;20038;-86